UAL1493 CYYC-KSFO
Flight info
| Callsign | UAL1493 |
|---|---|
| Flight time | N/A |
| Altitude | 40000 |
| Route | STAMP2/35R DUMRA Q890 ROPLA DCT GEG DCT PASST DCT MRRLO BDEGA4 |
| Aircraft | B772/H-SDE2E3FGHIJ5LORVWXY/LB1D1 |
Departure
| Time | N/A |
|---|---|
| Airport | Calgary International Airport (CYYC) |
Arrival
| Time | 2026-05-07 22:23 |
|---|---|
| Airport | San Francisco International Airport (KSFO) |
| Time | Latitude | Longitude | Altitude | Speed | Heading |
|---|---|---|---|---|---|
| 2026-05-07 21:19 | 43.47078 | -120.57422 | 40021 ft | 471 kts | 210° |
| 2026-05-07 21:20 | 43.41179 | -120.61337 | 40021 ft | 471 kts | 210° |
| 2026-05-07 21:20 | 43.35243 | -120.65146 | 40026 ft | 473 kts | 205° |
| 2026-05-07 21:21 | 43.29004 | -120.68117 | 40019 ft | 475 kts | 202° |
| 2026-05-07 21:21 | 43.22726 | -120.70954 | 40025 ft | 475 kts | 202° |
| 2026-05-07 21:22 | 43.16447 | -120.73813 | 40023 ft | 476 kts | 202° |
| 2026-05-07 21:22 | 43.10173 | -120.76699 | 40024 ft | 476 kts | 202° |
| 2026-05-07 21:23 | 43.03895 | -120.79592 | 40028 ft | 476 kts | 202° |
| 2026-05-07 21:23 | 42.97616 | -120.82481 | 40035 ft | 476 kts | 202° |
| 2026-05-07 21:24 | 42.91338 | -120.85362 | 40042 ft | 476 kts | 202° |
| 2026-05-07 21:24 | 42.85053 | -120.88240 | 40041 ft | 476 kts | 202° |
| 2026-05-07 21:25 | 42.78771 | -120.91108 | 40049 ft | 476 kts | 202° |
| 2026-05-07 21:25 | 42.72485 | -120.93973 | 40055 ft | 476 kts | 202° |
| 2026-05-07 21:26 | 42.66200 | -120.96831 | 40059 ft | 476 kts | 201° |
| 2026-05-07 21:26 | 42.59918 | -120.99682 | 40062 ft | 476 kts | 201° |
| 2026-05-07 21:27 | 42.53635 | -121.02527 | 40059 ft | 476 kts | 201° |
| 2026-05-07 21:27 | 42.47363 | -121.05362 | 40060 ft | 475 kts | 201° |
| 2026-05-07 21:28 | 42.41091 | -121.08189 | 40062 ft | 475 kts | 201° |
| 2026-05-07 21:28 | 42.34827 | -121.11007 | 40066 ft | 474 kts | 201° |
| 2026-05-07 21:29 | 42.28569 | -121.13818 | 40063 ft | 474 kts | 201° |
| 2026-05-07 21:29 | 42.22311 | -121.16623 | 40059 ft | 473 kts | 201° |
| 2026-05-07 21:30 | 42.16062 | -121.19417 | 40065 ft | 473 kts | 201° |
| 2026-05-07 21:30 | 42.09818 | -121.22203 | 40063 ft | 473 kts | 201° |
| 2026-05-07 21:31 | 42.03577 | -121.24982 | 40068 ft | 472 kts | 201° |
| 2026-05-07 21:31 | 41.97342 | -121.27752 | 40070 ft | 472 kts | 200° |
| 2026-05-07 21:32 | 41.91107 | -121.30518 | 40063 ft | 472 kts | 200° |
| 2026-05-07 21:32 | 41.84873 | -121.33278 | 40059 ft | 472 kts | 200° |
| 2026-05-07 21:33 | 41.78644 | -121.36029 | 40069 ft | 471 kts | 200° |
| 2026-05-07 21:33 | 41.72409 | -121.38776 | 40068 ft | 471 kts | 200° |
| 2026-05-07 21:34 | 41.66180 | -121.41516 | 40073 ft | 471 kts | 200° |
| 2026-05-07 21:34 | 41.59948 | -121.44251 | 40074 ft | 471 kts | 200° |
| 2026-05-07 21:35 | 41.53722 | -121.46978 | 40087 ft | 471 kts | 200° |
| 2026-05-07 21:35 | 41.47492 | -121.49703 | 40092 ft | 471 kts | 200° |
| 2026-05-07 21:36 | 41.41262 | -121.52420 | 40099 ft | 471 kts | 200° |
| 2026-05-07 21:36 | 41.35030 | -121.55134 | 40103 ft | 471 kts | 200° |
| 2026-05-07 21:37 | 41.28799 | -121.57841 | 40100 ft | 471 kts | 200° |
| 2026-05-07 21:37 | 41.22570 | -121.60543 | 40102 ft | 471 kts | 200° |
| 2026-05-07 21:38 | 41.16342 | -121.63236 | 40096 ft | 471 kts | 200° |
| 2026-05-07 21:38 | 41.10111 | -121.65927 | 40096 ft | 471 kts | 200° |
| 2026-05-07 21:39 | 41.03887 | -121.68610 | 40098 ft | 470 kts | 200° |
| 2026-05-07 21:39 | 40.97658 | -121.71290 | 40102 ft | 470 kts | 200° |
| 2026-05-07 21:40 | 40.91438 | -121.73962 | 40097 ft | 470 kts | 200° |
| 2026-05-07 21:40 | 40.85221 | -121.76628 | 40098 ft | 470 kts | 200° |
| 2026-05-07 21:41 | 40.79008 | -121.79285 | 40104 ft | 469 kts | 199° |
| 2026-05-07 21:41 | 40.72796 | -121.81936 | 40099 ft | 469 kts | 199° |
| 2026-05-07 21:42 | 40.66593 | -121.84578 | 40104 ft | 468 kts | 199° |
| 2026-05-07 21:42 | 40.60395 | -121.87212 | 40100 ft | 468 kts | 199° |
| 2026-05-07 21:43 | 40.54210 | -121.89836 | 40099 ft | 467 kts | 199° |
| 2026-05-07 21:43 | 40.48038 | -121.92450 | 40096 ft | 466 kts | 199° |
| 2026-05-07 21:44 | 40.41872 | -121.95056 | 40097 ft | 465 kts | 199° |
| 2026-05-07 21:44 | 40.35724 | -121.97650 | 40093 ft | 464 kts | 199° |
| 2026-05-07 21:45 | 40.29581 | -122.00237 | 40097 ft | 463 kts | 199° |
| 2026-05-07 21:45 | 40.23444 | -122.02815 | 40098 ft | 463 kts | 199° |
| 2026-05-07 21:46 | 40.17320 | -122.05384 | 40099 ft | 462 kts | 199° |
| 2026-05-07 21:46 | 40.11192 | -122.07949 | 40099 ft | 462 kts | 199° |
| 2026-05-07 21:47 | 40.06098 | -122.10079 | 40097 ft | 462 kts | 198° |
| 2026-05-07 21:47 | 39.99966 | -122.12636 | 40096 ft | 463 kts | 198° |
| 2026-05-07 21:48 | 39.93830 | -122.15192 | 40097 ft | 463 kts | 198° |
| 2026-05-07 21:48 | 39.87685 | -122.17746 | 40092 ft | 464 kts | 198° |
| 2026-05-07 21:49 | 39.81530 | -122.20300 | 40084 ft | 465 kts | 198° |
| 2026-05-07 21:49 | 39.75362 | -122.22854 | 40081 ft | 466 kts | 198° |
| 2026-05-07 21:50 | 39.69183 | -122.25407 | 40078 ft | 466 kts | 198° |
| 2026-05-07 21:50 | 39.62994 | -122.27960 | 40072 ft | 467 kts | 199° |
| 2026-05-07 21:51 | 39.56787 | -122.30516 | 40075 ft | 468 kts | 199° |
| 2026-05-07 21:51 | 39.50572 | -122.33071 | 40067 ft | 469 kts | 199° |
| 2026-05-07 21:52 | 39.44348 | -122.35624 | 40068 ft | 470 kts | 199° |
| 2026-05-07 21:52 | 39.38114 | -122.38175 | 40063 ft | 470 kts | 199° |
| 2026-05-07 21:53 | 39.31874 | -122.40726 | 40068 ft | 470 kts | 199° |
| 2026-05-07 21:53 | 39.25632 | -122.43272 | 40067 ft | 471 kts | 199° |
| 2026-05-07 21:54 | 39.22500 | -122.44548 | 39869 ft | 475 kts | 199° |
| 2026-05-07 21:54 | 39.19365 | -122.45825 | 39233 ft | 480 kts | 199° |
| 2026-05-07 21:54 | 39.16146 | -122.47134 | 38563 ft | 478 kts | 198° |
| 2026-05-07 21:54 | 39.13014 | -122.48404 | 37761 ft | 465 kts | 198° |
| 2026-05-07 21:55 | 39.09964 | -122.49641 | 37098 ft | 457 kts | 198° |
| 2026-05-07 21:55 | 39.06926 | -122.50872 | 36403 ft | 458 kts | 198° |
| 2026-05-07 21:55 | 39.03885 | -122.52106 | 35686 ft | 460 kts | 198° |
| 2026-05-07 21:55 | 39.00863 | -122.53329 | 35114 ft | 460 kts | 198° |
| 2026-05-07 21:56 | 38.97824 | -122.54558 | 34571 ft | 457 kts | 199° |
| 2026-05-07 21:56 | 38.94792 | -122.55784 | 34052 ft | 455 kts | 199° |
| 2026-05-07 21:56 | 38.91777 | -122.57001 | 33479 ft | 453 kts | 199° |
| 2026-05-07 21:56 | 38.88774 | -122.58174 | 32931 ft | 450 kts | 196° |
| 2026-05-07 21:57 | 38.85739 | -122.59132 | 32421 ft | 447 kts | 194° |
| 2026-05-07 21:57 | 38.82705 | -122.59960 | 31915 ft | 445 kts | 193° |
| 2026-05-07 21:57 | 38.79685 | -122.60752 | 31419 ft | 442 kts | 193° |
| 2026-05-07 21:57 | 38.76687 | -122.61549 | 30926 ft | 439 kts | 193° |
| 2026-05-07 21:58 | 38.73706 | -122.62364 | 30432 ft | 437 kts | 193° |
| 2026-05-07 21:58 | 38.70745 | -122.63191 | 29902 ft | 434 kts | 193° |
| 2026-05-07 21:58 | 38.67803 | -122.64021 | 29293 ft | 431 kts | 194° |
| 2026-05-07 21:58 | 38.64883 | -122.64847 | 28719 ft | 428 kts | 194° |
| 2026-05-07 21:59 | 38.61985 | -122.65668 | 28156 ft | 425 kts | 194° |
| 2026-05-07 21:59 | 38.59108 | -122.66479 | 27612 ft | 422 kts | 194° |
| 2026-05-07 21:59 | 38.56252 | -122.67283 | 27069 ft | 419 kts | 193° |
| 2026-05-07 21:59 | 38.53412 | -122.68081 | 26536 ft | 416 kts | 193° |
| 2026-05-07 22:00 | 38.50590 | -122.68873 | 26013 ft | 414 kts | 193° |
| 2026-05-07 22:00 | 38.47783 | -122.69661 | 25482 ft | 412 kts | 193° |
| 2026-05-07 22:00 | 38.44995 | -122.70445 | 24960 ft | 410 kts | 193° |
| 2026-05-07 22:00 | 38.42210 | -122.71226 | 24428 ft | 409 kts | 193° |
| 2026-05-07 22:01 | 38.39438 | -122.72003 | 23901 ft | 407 kts | 193° |
| 2026-05-07 22:01 | 38.36700 | -122.72769 | 23312 ft | 395 kts | 193° |
| 2026-05-07 22:01 | 38.34031 | -122.73516 | 22776 ft | 391 kts | 193° |
| 2026-05-07 22:01 | 38.31377 | -122.74259 | 22277 ft | 389 kts | 193° |
| 2026-05-07 22:02 | 38.28738 | -122.74997 | 21782 ft | 387 kts | 193° |
| 2026-05-07 22:02 | 38.26111 | -122.75731 | 21295 ft | 386 kts | 193° |
| 2026-05-07 22:02 | 38.23500 | -122.76433 | 20805 ft | 381 kts | 190° |
| 2026-05-07 22:02 | 38.20866 | -122.76447 | 20265 ft | 376 kts | 171° |
| 2026-05-07 22:03 | 38.18357 | -122.75743 | 19289 ft | 366 kts | 167° |
| 2026-05-07 22:03 | 38.15890 | -122.74971 | 18130 ft | 369 kts | 167° |
| 2026-05-07 22:03 | 38.13365 | -122.74181 | 17458 ft | 375 kts | 167° |
| 2026-05-07 22:03 | 38.10863 | -122.73413 | 17060 ft | 363 kts | 168° |
| 2026-05-07 22:04 | 38.08434 | -122.72686 | 16304 ft | 357 kts | 168° |
| 2026-05-07 22:04 | 38.06022 | -122.71976 | 15459 ft | 354 kts | 169° |
| 2026-05-07 22:04 | 38.03649 | -122.71284 | 14877 ft | 345 kts | 169° |
| 2026-05-07 22:04 | 38.01327 | -122.70611 | 14388 ft | 340 kts | 169° |
| 2026-05-07 22:05 | 37.99015 | -122.69944 | 13893 ft | 342 kts | 169° |
| 2026-05-07 22:05 | 37.96688 | -122.69272 | 13345 ft | 345 kts | 169° |
| 2026-05-07 22:05 | 37.94331 | -122.68591 | 12841 ft | 350 kts | 169° |
| 2026-05-07 22:05 | 37.91956 | -122.67905 | 12326 ft | 350 kts | 169° |
| 2026-05-07 22:06 | 37.89700 | -122.66985 | 11810 ft | 346 kts | 154° |
| 2026-05-07 22:06 | 37.87758 | -122.65146 | 11342 ft | 343 kts | 140° |
| 2026-05-07 22:06 | 37.85997 | -122.63178 | 10917 ft | 341 kts | 141° |
| 2026-05-07 22:06 | 37.84221 | -122.61259 | 10396 ft | 328 kts | 142° |
| 2026-05-07 22:07 | 37.82527 | -122.59449 | 9882 ft | 310 kts | 141° |
| 2026-05-07 22:07 | 37.81085 | -122.57538 | 9474 ft | 293 kts | 129° |
| 2026-05-07 22:07 | 37.80034 | -122.55394 | 9160 ft | 285 kts | 120° |
| 2026-05-07 22:07 | 37.79122 | -122.53120 | 8740 ft | 293 kts | 118° |
| 2026-05-07 22:08 | 37.78228 | -122.50811 | 8171 ft | 289 kts | 118° |
| 2026-05-07 22:08 | 37.77365 | -122.48566 | 7764 ft | 283 kts | 118° |
| 2026-05-07 22:08 | 37.76499 | -122.46311 | 7360 ft | 286 kts | 118° |
| 2026-05-07 22:08 | 37.75627 | -122.44036 | 6955 ft | 289 kts | 118° |
| 2026-05-07 22:09 | 37.74754 | -122.41749 | 6568 ft | 290 kts | 118° |
| 2026-05-07 22:09 | 37.73872 | -122.39445 | 6184 ft | 292 kts | 118° |
| 2026-05-07 22:09 | 37.73009 | -122.37188 | 5837 ft | 280 kts | 118° |
| 2026-05-07 22:09 | 37.72184 | -122.35030 | 5643 ft | 266 kts | 118° |
| 2026-05-07 22:10 | 37.71367 | -122.32908 | 5466 ft | 269 kts | 118° |
| 2026-05-07 22:10 | 37.70554 | -122.30799 | 5479 ft | 268 kts | 118° |
| 2026-05-07 22:10 | 37.69731 | -122.28670 | 5491 ft | 272 kts | 118° |
| 2026-05-07 22:10 | 37.68894 | -122.26517 | 5491 ft | 273 kts | 118° |
| 2026-05-07 22:11 | 37.68057 | -122.24363 | 5487 ft | 273 kts | 118° |
| 2026-05-07 22:11 | 37.67221 | -122.22218 | 5495 ft | 272 kts | 118° |
| 2026-05-07 22:11 | 37.66382 | -122.20078 | 5496 ft | 273 kts | 118° |
| 2026-05-07 22:11 | 37.65540 | -122.17932 | 5475 ft | 272 kts | 118° |
| 2026-05-07 22:12 | 37.64700 | -122.15790 | 5469 ft | 272 kts | 118° |
| 2026-05-07 22:12 | 37.63864 | -122.13652 | 5471 ft | 272 kts | 118° |
| 2026-05-07 22:12 | 37.63028 | -122.11517 | 5470 ft | 272 kts | 118° |
| 2026-05-07 22:12 | 37.62190 | -122.09380 | 5468 ft | 272 kts | 118° |
| 2026-05-07 22:13 | 37.61353 | -122.07247 | 5467 ft | 271 kts | 118° |
| 2026-05-07 22:13 | 37.60515 | -122.05111 | 5465 ft | 271 kts | 118° |
| 2026-05-07 22:13 | 37.59681 | -122.02980 | 5463 ft | 271 kts | 117° |
| 2026-05-07 22:13 | 37.58846 | -122.00852 | 5467 ft | 271 kts | 117° |
| 2026-05-07 22:14 | 37.58005 | -121.98720 | 5475 ft | 272 kts | 117° |
| 2026-05-07 22:14 | 37.57156 | -121.96586 | 5479 ft | 273 kts | 118° |
| 2026-05-07 22:14 | 37.56302 | -121.94448 | 5456 ft | 274 kts | 118° |
| 2026-05-07 22:14 | 37.55442 | -121.92303 | 5445 ft | 274 kts | 118° |
| 2026-05-07 22:15 | 37.54588 | -121.90165 | 5443 ft | 272 kts | 118° |
| 2026-05-07 22:15 | 37.53473 | -121.88337 | 5414 ft | 263 kts | 147° |
| 2026-05-07 22:15 | 37.51764 | -121.87634 | 5447 ft | 263 kts | 183° |
| 2026-05-07 22:15 | 37.50043 | -121.88302 | 5462 ft | 261 kts | 216° |
| 2026-05-07 22:16 | 37.48739 | -121.89860 | 5471 ft | 258 kts | 233° |
| 2026-05-07 22:16 | 37.47873 | -121.91814 | 5469 ft | 256 kts | 251° |
| 2026-05-07 22:16 | 37.47583 | -121.94004 | 5461 ft | 254 kts | 275° |
| 2026-05-07 22:16 | 37.48015 | -121.96139 | 5397 ft | 255 kts | 288° |
| 2026-05-07 22:17 | 37.48599 | -121.98301 | 5054 ft | 265 kts | 288° |
| 2026-05-07 22:17 | 37.49193 | -122.00494 | 4730 ft | 265 kts | 288° |
| 2026-05-07 22:17 | 37.49783 | -122.02692 | 4399 ft | 264 kts | 288° |
| 2026-05-07 22:17 | 37.50367 | -122.04883 | 4082 ft | 264 kts | 288° |
| 2026-05-07 22:18 | 37.50944 | -122.07077 | 3772 ft | 264 kts | 288° |
| 2026-05-07 22:18 | 37.52067 | -122.11378 | 3392 ft | 248 kts | 288° |
| 2026-05-07 22:18 | 37.52582 | -122.13365 | 3259 ft | 229 kts | 288° |
| 2026-05-07 22:19 | 37.53059 | -122.15207 | 3153 ft | 214 kts | 288° |
| 2026-05-07 22:19 | 37.53521 | -122.16985 | 3099 ft | 212 kts | 289° |
| 2026-05-07 22:19 | 37.54147 | -122.18657 | 2953 ft | 214 kts | 298° |
| 2026-05-07 22:19 | 37.54879 | -122.20307 | 2695 ft | 212 kts | 298° |
| 2026-05-07 22:20 | 37.55564 | -122.21905 | 2408 ft | 202 kts | 297° |
| 2026-05-07 22:20 | 37.56196 | -122.23409 | 2166 ft | 187 kts | 297° |
| 2026-05-07 22:20 | 37.56784 | -122.24807 | 1903 ft | 173 kts | 297° |
| 2026-05-07 22:20 | 37.57329 | -122.26109 | 1708 ft | 166 kts | 296° |
| 2026-05-07 22:21 | 37.57863 | -122.27385 | 1476 ft | 164 kts | 296° |
| 2026-05-07 22:21 | 37.58390 | -122.28638 | 1280 ft | 157 kts | 296° |
| 2026-05-07 22:21 | 37.58873 | -122.29794 | 1079 ft | 143 kts | 297° |
| 2026-05-07 22:21 | 37.59325 | -122.30868 | 901 ft | 131 kts | 296° |
| 2026-05-07 22:22 | 37.59723 | -122.31818 | 721 ft | 117 kts | 299° |
| 2026-05-07 22:22 | 37.60032 | -122.32553 | 626 ft | 119 kts | 297° |
| 2026-05-07 22:22 | 37.60342 | -122.33295 | 475 ft | 118 kts | 297° |
| 2026-05-07 22:22 | 37.60698 | -122.34183 | 306 ft | 109 kts | 297° |
| 2026-05-07 22:23 | 37.61045 | -122.35015 | 210 ft | 109 kts | 299° |
| 2026-05-07 22:23 | 37.61416 | -122.35880 | 58 ft | 113 kts | 299° |
| 2026-05-07 22:23 | 37.61711 | -122.36573 | 25 ft | 20 kts | 298° |
| 2026-05-07 22:23 | 37.61715 | -122.36582 | 25 ft | 1 kts | 298° |
| 2026-05-07 22:24 | 37.61737 | -122.36636 | 26 ft | 12 kts | 298° |
| 2026-05-07 22:24 | 37.61727 | -122.36717 | 26 ft | 12 kts | 220° |
| 2026-05-07 22:24 | 37.61631 | -122.36787 | 26 ft | 19 kts | 208° |
| 2026-05-07 22:24 | 37.61509 | -122.36874 | 26 ft | 19 kts | 220° |
| 2026-05-07 22:25 | 37.61498 | -122.36983 | 26 ft | 13 kts | 294° |
| 2026-05-07 22:25 | 37.61539 | -122.37082 | 26 ft | 13 kts | 298° |
| 2026-05-07 22:25 | 37.61561 | -122.37189 | 26 ft | 13 kts | 268° |
| 2026-05-07 22:25 | 37.61531 | -122.37293 | 26 ft | 13 kts | 234° |
| 2026-05-07 22:26 | 37.61462 | -122.37362 | 26 ft | 13 kts | 208° |
| 2026-05-07 22:26 | 37.61384 | -122.37414 | 26 ft | 13 kts | 208° |
| 2026-05-07 22:26 | 37.61305 | -122.37466 | 26 ft | 13 kts | 207° |
| 2026-05-07 22:26 | 37.61226 | -122.37518 | 26 ft | 13 kts | 208° |
| 2026-05-07 22:27 | 37.61148 | -122.37570 | 26 ft | 13 kts | 207° |
| 2026-05-07 22:27 | 37.61069 | -122.37622 | 26 ft | 13 kts | 208° |
| 2026-05-07 22:27 | 37.60991 | -122.37674 | 26 ft | 13 kts | 208° |
| 2026-05-07 22:27 | 37.60912 | -122.37725 | 26 ft | 13 kts | 206° |
| 2026-05-07 22:28 | 37.60833 | -122.37778 | 26 ft | 13 kts | 208° |
| 2026-05-07 22:28 | 37.60755 | -122.37830 | 26 ft | 13 kts | 211° |
| 2026-05-07 22:28 | 37.60743 | -122.37906 | 26 ft | 9 kts | 309° |
| 2026-05-07 22:28 | 37.60783 | -122.37970 | 26 ft | 9 kts | 298° |
| 2026-05-07 22:29 | 37.60813 | -122.38044 | 26 ft | 9 kts | 297° |
| 2026-05-07 22:29 | 37.60843 | -122.38117 | 26 ft | 9 kts | 297° |
| 2026-05-07 22:29 | 37.60871 | -122.38190 | 26 ft | 9 kts | 290° |
| 2026-05-07 22:29 | 37.60879 | -122.38272 | 26 ft | 9 kts | 280° |
| 2026-05-07 22:30 | 37.60908 | -122.38346 | 26 ft | 9 kts | 302° |
| 2026-05-07 22:30 | 37.60942 | -122.38417 | 26 ft | 9 kts | 288° |
| 2026-05-07 22:30 | 37.60913 | -122.38486 | 25 ft | 10 kts | 216° |
| 2026-05-07 22:30 | 37.60887 | -122.38556 | 26 ft | 10 kts | 277° |
| 2026-05-07 22:31 | 37.60914 | -122.38633 | 26 ft | 10 kts | 297° |
| 2026-05-07 22:31 | 37.60945 | -122.38708 | 26 ft | 10 kts | 297° |
| 2026-05-07 22:31 | 37.60976 | -122.38782 | 26 ft | 10 kts | 297° |
| 2026-05-07 22:31 | 37.61014 | -122.38851 | 26 ft | 10 kts | 317° |
| 2026-05-07 22:32 | 37.61055 | -122.38866 | 26 ft | 10 kts | 3° |
| 2026-05-07 22:32 | 37.61117 | -122.38835 | 26 ft | 10 kts | 26° |
| 2026-05-07 22:32 | 37.61176 | -122.38796 | 26 ft | 10 kts | 28° |
| 2026-05-07 22:32 | 37.61223 | -122.38766 | 26 ft | 6 kts | 24° |
| 2026-05-07 22:33 | 37.61261 | -122.38771 | 26 ft | 6 kts | 318° |
| 2026-05-07 22:33 | 37.61274 | -122.38824 | 26 ft | 6 kts | 295° |
| 2026-05-07 22:33 | 37.61287 | -122.38854 | 26 ft | 0 kts | 298° |
| 2026-05-07 22:34 | 37.61287 | -122.38855 | 26 ft | 0 kts | 297° |
| 2026-05-07 22:34 | 37.61288 | -122.38859 | 26 ft | 0 kts | 297° |
| 2026-05-07 22:35 | 37.61289 | -122.38860 | 26 ft | 0 kts | 297° |